Time;durP1;ratioP1;P1;durP2;ratioP2;P2;SDS_P1;SDS_P2;PMS_P1;PMS_P2;Temp;Humidity;BMP_temperature;BMP_pressure;BME280_temperature;BME280_humidity;BME280_pressure;Samples;Min_cycle;Max_cycle;Signal;HPM_P1;HPM_P2
2023/09/29 00:01:27;;;;;;;;;17.67;17.00;;;;;24.01;41.93;101313.27;109988;1251;19052;-37
2023/09/29 00:03:55;;;;;;;;;18.00;18.00;;;;;24.01;41.99;101314.14;110024;1253;20246;-37
2023/09/29 00:06:22;;;;;;;;;21.00;19.00;;;;;23.98;42.06;101309.83;110019;1254;20804;-38
2023/09/29 00:08:49;;;;;;;;;17.00;17.00;;;;;23.98;42.09;101309.17;109995;1252;21202;-38
2023/09/29 00:11:17;;;;;;;;;17.50;17.50;;;;;23.99;41.93;101308.61;110011;1253;20066;-36
2023/09/29 00:13:44;;;;;;;;;18.00;17.67;;;;;24.01;41.93;101305.77;109848;1267;19355;-36
2023/09/29 00:16:11;;;;;;;;;18.00;18.00;;;;;23.99;41.88;101307.14;110037;1253;19989;-37
2023/09/29 00:18:39;;;;;;;;;21.00;19.00;;;;;23.98;42.16;101304.84;110024;1253;20196;-37
2023/09/29 00:21:06;;;;;;;;;20.00;18.50;;;;;23.98;42.01;101306.65;110046;1252;20809;-36
2023/09/29 00:23:34;;;;;;;;;19.00;18.00;;;;;24.03;41.94;101308.88;110011;1259;20057;-37
2023/09/29 00:26:02;;;;;;;;;20.00;17.00;;;;;24.03;42.03;101310.02;110028;1253;20098;-38
2023/09/29 00:28:29;;;;;;;;;19.00;17.00;;;;;23.97;42.09;101309.89;110019;1267;22163;-35
2023/09/29 00:30:56;;;;;;;;;22.00;18.00;;;;;23.98;42.22;101308.02;109997;1254;18609;-37
2023/09/29 00:33:24;;;;;;;;;22.00;21.00;;;;;23.98;42.18;101304.41;109992;1252;21617;-37
2023/09/29 00:35:51;;;;;;;;;25.00;22.00;;;;;23.96;42.01;101303.21;110018;1251;20755;-37
2023/09/29 00:38:19;;;;;;;;;19.00;19.00;;;;;23.95;42.39;101305.07;109978;1267;21260;-37
2023/09/29 00:40:46;;;;;;;;;17.00;15.00;;;;;23.96;42.30;101301.52;109959;1267;18822;-37
2023/09/29 00:43:15;;;;;;;;;18.33;18.33;;;;;23.95;42.08;101303.21;110012;1267;19216;-37
2023/09/29 00:45:43;;;;;;;;;14.00;14.00;;;;;23.95;42.14;101300.70;110013;1266;18581;-37
2023/09/29 00:48:12;;;;;;;;;18.00;18.00;;;;;23.97;42.12;101301.40;110000;1253;20197;-38
2023/09/29 00:50:40;;;;;;;;;14.50;14.50;;;;;23.93;42.00;101301.14;109998;1253;20954;-37
2023/09/29 00:53:07;;;;;;;;;21.00;19.67;;;;;23.94;42.16;101307.59;110009;1267;18594;-37
2023/09/29 00:55:36;;;;;;;;;18.00;17.00;;;;;23.93;41.92;101303.61;109997;1259;20001;-37
2023/09/29 00:58:04;;;;;;;;;18.00;17.00;;;;;23.97;41.83;101304.90;109988;1259;20628;-37
2023/09/29 01:00:32;;;;;;;;;21.50;17.50;;;;;23.95;41.92;101306.88;110026;1267;18562;-37
2023/09/29 01:02:59;;;;;;;;;20.00;18.00;;;;;23.95;42.03;101303.44;109995;1253;20179;-37
2023/09/29 01:05:29;;;;;;;;;18.50;18.00;;;;;23.93;42.03;101299.11;109974;1267;19661;-37
2023/09/29 01:07:56;;;;;;;;;18.50;17.50;;;;;23.93;42.04;101298.23;109983;1251;19874;-37
2023/09/29 01:10:24;;;;;;;;;17.00;16.00;;;;;23.95;41.91;101297.58;109979;1267;22816;-37
2023/09/29 01:12:53;;;;;;;;;23.00;22.00;;;;;23.93;41.96;101295.12;110002;1259;19293;-37
2023/09/29 01:15:20;;;;;;;;;17.33;17.00;;;;;23.89;41.85;101297.88;110004;1259;20115;-38
2023/09/29 01:17:48;;;;;;;;;17.00;15.00;;;;;23.90;42.13;101299.84;109989;1253;21379;-37
2023/09/29 01:20:16;;;;;;;;;17.00;17.00;;;;;23.88;42.11;101295.63;109997;1251;20740;-37
2023/09/29 01:22:43;;;;;;;;;15.00;14.00;;;;;23.91;42.06;101293.16;109996;1251;18584;-37
2023/09/29 01:25:11;;;;;;;;;15.00;15.00;;;;;23.91;42.03;101289.48;110015;1267;23189;-37
2023/09/29 01:27:39;;;;;;;;;22.00;18.50;;;;;23.91;41.90;101290.85;110013;1252;20797;-37
2023/09/29 01:30:07;;;;;;;;;19.67;18.33;;;;;23.91;41.99;101292.06;110010;1251;18596;-37
2023/09/29 01:32:35;;;;;;;;;15.00;15.00;;;;;23.89;42.14;101285.61;110006;1267;18730;-38
2023/09/29 01:35:03;;;;;;;;;21.00;18.00;;;;;23.86;42.09;101280.31;109976;1253;22328;-37
2023/09/29 01:37:31;;;;;;;;;27.50;25.00;;;;;23.89;42.02;101282.32;110005;1267;18640;-37
2023/09/29 01:39:58;;;;;;;;;22.00;21.00;;;;;23.88;42.13;101280.96;109964;1267;20790;-38
2023/09/29 01:42:25;;;;;;;;;17.00;17.00;;;;;23.85;42.03;101275.93;109688;1253;20936;-38
2023/09/29 01:44:53;;;;;;;;;19.00;19.00;;;;;23.85;42.14;101281.73;109716;1253;20036;-38
2023/09/29 01:47:21;;;;;;;;;17.00;17.00;;;;;23.86;42.06;101280.47;109662;1267;18743;-38
2023/09/29 01:49:49;;;;;;;;;17.00;17.00;;;;;23.86;42.04;101280.09;109653;1253;20759;-38
2023/09/29 01:52:17;;;;;;;;;19.00;18.00;;;;;23.84;42.06;101280.64;109680;1252;20068;-38
2023/09/29 01:54:44;;;;;;;;;18.50;17.50;;;;;23.83;42.42;101278.52;109670;1253;20194;-38
2023/09/29 01:57:12;;;;;;;;;19.00;18.00;;;;;23.84;42.21;101278.45;109680;1253;20684;-38
2023/09/29 01:59:40;;;;;;;;;19.67;18.00;;;;;23.84;42.16;101276.16;109793;1253;21348;-37
2023/09/29 02:02:07;;;;;;;;;18.50;18.50;;;;;23.83;42.09;101279.45;109954;1251;18730;-35
2023/09/29 02:04:35;;;;;;;;;20.00;17.50;;;;;23.84;42.23;101280.75;109920;1259;22922;-37
2023/09/29 02:07:03;;;;;;;;;25.00;21.00;;;;;23.86;42.14;101281.02;110010;1267;18579;-37
2023/09/29 02:09:30;;;;;;;;;18.00;18.00;;;;;23.85;42.17;101279.88;109995;1254;20160;-37
2023/09/29 02:11:57;;;;;;;;;21.00;19.00;;;;;23.85;42.02;101283.81;110015;1267;19328;-37
2023/09/29 02:14:25;;;;;;;;;18.00;18.00;;;;;23.83;42.17;101283.61;110010;1259;21877;-37
2023/09/29 02:16:53;;;;;;;;;15.00;15.00;;;;;23.84;42.16;101287.20;110003;1267;18711;-38
2023/09/29 02:19:21;;;;;;;;;21.00;19.00;;;;;23.83;42.15;101282.89;110031;1266;19380;-38
2023/09/29 02:21:48;;;;;;;;;19.00;17.00;;;;;23.83;41.94;101287.81;110029;1259;20142;-37
2023/09/29 02:24:15;;;;;;;;;17.00;15.00;;;;;23.81;42.16;101284.97;109990;1267;18882;-38
2023/09/29 02:26:44;;;;;;;;;18.00;15.00;;;;;23.81;42.26;101285.24;110019;1253;20739;-37
2023/09/29 02:29:11;;;;;;;;;17.00;15.00;;;;;23.79;42.09;101285.85;110023;1251;20077;-37
2023/09/29 02:31:39;;;;;;;;;18.00;17.00;;;;;23.80;42.12;101284.98;110019;1267;18813;-38
2023/09/29 02:34:07;;;;;;;;;19.00;19.00;;;;;23.79;42.22;101285.25;109973;1253;20764;-36
2023/09/29 02:36:36;;;;;;;;;17.00;15.00;;;;;23.79;42.16;101287.11;109915;1251;20035;-36
2023/09/29 02:39:04;;;;;;;;;19.50;17.00;;;;;23.78;42.20;101283.45;109994;1253;20120;-36
2023/09/29 02:41:31;;;;;;;;;17.50;17.00;;;;;23.77;42.15;101281.42;110022;1267;19307;-35
2023/09/29 02:43:58;;;;;;;;;23.00;19.00;;;;;23.77;42.11;101278.74;110020;1253;20025;-37
2023/09/29 02:46:26;;;;;;;;;17.00;15.00;;;;;23.78;41.88;101278.52;110012;1267;22626;-38
2023/09/29 02:48:53;;;;;;;;;21.00;18.00;;;;;23.80;41.96;101275.07;109988;1259;20707;-36
2023/09/29 02:51:21;;;;;;;;;17.00;17.00;;;;;23.79;42.04;101276.50;110013;1251;18734;-37
2023/09/29 02:53:54;;;;;;;;;21.00;17.00;;;;;23.76;41.86;101271.64;110004;1253;20174;-37
2023/09/29 02:56:23;;;;;;;;;15.00;15.00;;;;;23.77;41.98;101272.18;109999;1251;19366;-37
2023/09/29 02:58:54;;;;;;;;;15.00;14.00;;;;;23.77;41.68;101272.40;110034;1259;20033;-38
2023/09/29 03:01:22;;;;;;;;;18.00;17.00;;;;;23.75;41.73;101267.27;110016;1251;20157;-37
2023/09/29 03:03:54;;;;;;;;;20.00;18.00;;;;;23.76;41.71;101266.00;109977;1251;19387;-37
2023/09/29 03:06:21;;;;;;;;;18.50;17.00;;;;;23.75;41.67;101266.06;109994;1259;19993;-38
2023/09/29 03:08:51;;;;;;;;;17.50;17.00;;;;;23.73;41.71;101261.91;109983;1253;20179;-38
2023/09/29 03:11:18;;;;;;;;;18.50;16.00;;;;;23.74;41.72;101263.00;110012;1267;19370;-37
2023/09/29 03:13:46;;;;;;;;;18.50;17.00;;;;;23.73;41.82;101257.48;109991;1251;21385;-37
2023/09/29 03:16:13;;;;;;;;;17.00;17.00;;;;;23.73;41.89;101254.14;109997;1267;18676;-37
2023/09/29 03:18:41;;;;;;;;;19.00;18.00;;;;;23.72;41.79;101254.25;110011;1267;19472;-38
2023/09/29 03:21:09;;;;;;;;;18.00;18.00;;;;;23.73;41.89;101249.33;110019;1252;20028;-37
2023/09/29 03:23:36;;;;;;;;;17.00;15.00;;;;;23.71;41.59;101250.75;110035;1251;18699;-37
2023/09/29 03:26:04;;;;;;;;;21.67;18.33;;;;;23.72;41.78;101254.86;110022;1267;19366;-37
2023/09/29 03:28:32;;;;;;;;;14.00;14.00;;;;;23.70;41.44;101249.27;110030;1259;20121;-37
2023/09/29 03:31:02;;;;;;;;;19.00;18.00;;;;;23.69;41.52;101251.63;110041;1251;20015;-37
2023/09/29 03:33:29;;;;;;;;;16.67;16.67;;;;;23.70;41.50;101248.95;110036;1267;19327;-37
2023/09/29 03:35:57;;;;;;;;;17.00;14.00;;;;;23.69;41.61;101248.30;110027;1267;18511;-36
2023/09/29 03:38:25;;;;;;;;;16.00;16.00;;;;;23.70;41.52;101250.86;109977;1251;20058;-37
2023/09/29 03:40:52;;;;;;;;;18.00;17.00;;;;;23.69;41.50;101250.80;109998;1253;20768;-38
2023/09/29 03:43:19;;;;;;;;;18.00;15.00;;;;;23.69;41.37;101246.77;110012;1259;20067;-38
2023/09/29 03:45:47;;;;;;;;;21.00;17.50;;;;;23.68;41.72;101245.56;109942;1259;23041;-37
2023/09/29 03:48:15;;;;;;;;;19.00;17.00;;;;;23.68;41.50;101240.92;110006;1267;19298;-37
2023/09/29 03:50:43;;;;;;;;;17.00;15.00;;;;;23.67;41.69;101244.59;109966;1267;18568;-37
2023/09/29 03:53:10;;;;;;;;;19.00;18.00;;;;;23.66;41.68;101238.02;109979;1267;19097;-38
2023/09/29 03:55:37;;;;;;;;;18.00;18.00;;;;;23.68;41.57;101240.20;109919;1267;20698;-37
2023/09/29 03:58:05;;;;;;;;;21.00;19.00;;;;;23.69;41.49;101241.95;109995;1259;23003;-37
2023/09/29 04:00:32;;;;;;;;;19.00;17.00;;;;;23.69;41.47;101242.33;110002;1267;20114;-37
2023/09/29 04:02:59;;;;;;;;;21.00;19.00;;;;;23.67;41.43;101241.63;109984;1267;22010;-37
2023/09/29 04:05:27;;;;;;;;;16.00;15.00;;;;;23.65;41.51;101240.21;109999;1253;20015;-37
2023/09/29 04:07:54;;;;;;;;;16.00;14.00;;;;;23.64;41.74;101238.73;110000;1253;20147;-38
2023/09/29 04:10:22;;;;;;;;;21.00;18.50;;;;;23.65;41.42;101234.30;109989;1253;21580;-38
2023/09/29 04:12:49;;;;;;;;;18.00;17.00;;;;;23.65;41.48;101237.91;109960;1253;20028;-37
2023/09/29 04:15:17;;;;;;;;;19.00;18.00;;;;;23.65;41.59;101240.48;109991;1267;18734;-37
2023/09/29 04:17:44;;;;;;;;;17.00;17.00;;;;;23.64;41.46;101243.23;109996;1267;20712;-38
2023/09/29 04:20:11;;;;;;;;;17.00;17.00;;;;;23.62;41.54;101239.95;110003;1253;22084;-38
2023/09/29 04:22:39;;;;;;;;;22.00;19.00;;;;;23.61;41.46;101246.18;109875;1253;20176;-37
2023/09/29 04:25:06;;;;;;;;;21.67;18.00;;;;;23.59;41.66;101245.70;109988;1251;20640;-37
2023/09/29 04:27:35;;;;;;;;;18.00;17.00;;;;;23.65;41.60;101246.66;110006;1254;20041;-37
2023/09/29 04:30:04;;;;;;;;;17.50;17.00;;;;;23.68;41.34;101243.81;110006;1253;20273;-36
2023/09/29 04:32:31;;;;;;;;;18.00;17.00;;;;;23.71;41.78;101240.64;110011;1251;20963;-38
2023/09/29 04:34:58;;;;;;;;;18.00;17.00;;;;;23.73;42.01;101243.91;110034;1253;20102;-38
2023/09/29 04:37:26;;;;;;;;;16.00;14.33;;;;;23.70;41.61;101244.25;110005;1260;20143;-38
2023/09/29 04:39:55;;;;;;;;;28.00;26.00;;;;;23.71;43.00;101242.55;109931;1259;20882;-38
2023/09/29 04:42:24;;;;;;;;;31.50;29.50;;;;;23.51;43.06;101242.19;110026;1253;20097;-37
2023/09/29 04:44:51;;;;;;;;;28.00;26.00;;;;;23.34;43.42;101239.42;110028;1253;22577;-37
2023/09/29 04:47:18;;;;;;;;;33.00;29.00;;;;;23.31;43.05;101240.09;109989;1251;21841;-37
2023/09/29 04:49:46;;;;;;;;;31.00;28.00;;;;;23.27;42.83;101239.59;110008;1267;18566;-38
2023/09/29 04:52:13;;;;;;;;;28.00;24.00;;;;;23.19;43.05;101238.30;110007;1252;22828;-37
2023/09/29 04:54:40;;;;;;;;;32.00;28.00;;;;;23.32;43.16;101239.20;109994;1253;20731;-38
2023/09/29 04:57:07;;;;;;;;;26.00;24.00;;;;;23.47;43.27;101244.27;109854;1251;21491;-45
2023/09/29 04:59:35;;;;;;;;;21.00;20.00;;;;;23.52;43.22;101242.02;110007;1267;20303;-38
2023/09/29 05:02:02;;;;;;;;;18.00;18.00;;;;;23.61;43.25;101245.36;110001;1259;21650;-39
2023/09/29 05:04:30;;;;;;;;;24.00;20.00;;;;;23.66;43.14;101240.76;109989;1252;21443;-37
2023/09/29 05:06:57;;;;;;;;;18.00;18.00;;;;;23.68;42.90;101241.19;110021;1259;19962;-38
2023/09/29 05:09:24;;;;;;;;;16.50;16.00;;;;;23.70;42.99;101240.91;110009;1260;22658;-37
2023/09/29 05:11:51;;;;;;;;;21.00;17.00;;;;;23.72;43.19;101238.50;110023;1259;20046;-36
2023/09/29 05:14:19;;;;;;;;;20.67;18.33;;;;;23.73;43.05;101241.39;110031;1267;22800;-37
2023/09/29 05:16:47;;;;;;;;;18.00;18.00;;;;;23.80;42.80;101244.16;109995;1253;20688;-39
2023/09/29 05:19:14;;;;;;;;;18.00;17.00;;;;;23.74;43.33;101242.27;110019;1251;18595;-38
2023/09/29 05:21:42;;;;;;;;;17.00;17.00;;;;;23.78;43.51;101246.80;109991;1251;20142;-38
2023/09/29 05:24:09;;;;;;;;;19.00;15.00;;;;;23.81;43.24;101245.85;109991;1267;22005;-37
2023/09/29 05:26:37;;;;;;;;;17.00;14.00;;;;;23.77;43.38;101246.58;110039;1253;20074;-36
2023/09/29 05:29:04;;;;;;;;;17.00;17.00;;;;;23.82;43.23;101246.45;110005;1253;22622;-36
2023/09/29 05:31:31;;;;;;;;;17.00;17.00;;;;;23.82;42.88;101242.02;109842;1251;22735;-37
2023/09/29 05:33:59;;;;;;;;;18.00;17.00;;;;;23.82;42.83;101243.33;109920;1267;18585;-36
2023/09/29 05:36:27;;;;;;;;;18.50;18.00;;;;;23.82;42.72;101244.27;109985;1253;22944;-38
2023/09/29 05:38:54;;;;;;;;;17.00;16.50;;;;;23.86;42.80;101244.13;110041;1267;19795;-37
2023/09/29 05:41:22;;;;;;;;;16.00;14.00;;;;;23.95;42.54;101244.82;110035;1261;19921;-37
2023/09/29 05:43:49;;;;;;;;;14.50;13.00;;;;;23.98;42.42;101245.25;110023;1253;20112;-37
2023/09/29 05:46:17;;;;;;;;;14.00;14.00;;;;;23.99;42.41;101246.67;109926;1253;20898;-37
2023/09/29 05:48:44;;;;;;;;;17.00;15.00;;;;;24.01;42.36;101241.62;109961;1267;22207;-36
2023/09/29 05:51:11;;;;;;;;;21.00;19.00;;;;;24.03;42.14;101244.02;110018;1267;18751;-37
2023/09/29 05:53:39;;;;;;;;;18.00;15.50;;;;;24.03;42.27;101244.51;110011;1259;20725;-38
2023/09/29 05:56:08;;;;;;;;;17.00;17.00;;;;;24.05;42.26;101239.20;110013;1253;20022;-38
2023/09/29 05:58:35;;;;;;;;;17.50;15.00;;;;;24.06;42.18;101240.99;110023;1267;18682;-38
2023/09/29 06:01:03;;;;;;;;;17.00;17.00;;;;;24.08;41.91;101240.27;110026;1253;21204;-38
2023/09/29 06:03:30;;;;;;;;;17.00;15.00;;;;;24.10;41.98;101241.09;109999;1252;21931;-37
2023/09/29 06:05:57;;;;;;;;;19.50;18.00;;;;;24.12;41.77;101239.88;110001;1267;18578;-37
2023/09/29 06:08:25;;;;;;;;;21.00;15.00;;;;;24.13;41.60;101238.50;110014;1253;20737;-37
2023/09/29 06:10:52;;;;;;;;;22.50;19.00;;;;;24.15;41.68;101235.48;110008;1267;18604;-37
2023/09/29 06:13:20;;;;;;;;;16.00;16.00;;;;;24.17;41.59;101233.45;109994;1265;20369;-37
2023/09/29 06:15:47;;;;;;;;;21.00;17.00;;;;;24.16;41.75;101234.60;110023;1253;20757;-37
2023/09/29 06:18:15;;;;;;;;;18.00;17.00;;;;;24.17;41.62;101234.42;110000;1251;19928;-37
2023/09/29 06:20:42;;;;;;;;;21.00;19.00;;;;;24.19;41.62;101237.83;109971;1253;20249;-37
2023/09/29 06:23:09;;;;;;;;;24.00;19.00;;;;;24.21;41.41;101241.20;110010;1267;22263;-38
2023/09/29 06:25:36;;;;;;;;;19.00;18.00;;;;;24.22;41.38;101242.94;109977;1251;20116;-37
2023/09/29 06:28:04;;;;;;;;;17.00;17.00;;;;;24.24;41.37;101240.36;109988;1267;22581;-38
2023/09/29 06:30:31;;;;;;;;;21.00;18.00;;;;;24.23;41.58;101240.48;110014;1251;20726;-38
2023/09/29 06:32:59;;;;;;;;;21.00;21.00;;;;;24.22;41.42;101244.64;110016;1267;20024;-36
2023/09/29 06:35:26;;;;;;;;;26.00;18.67;;;;;24.22;41.40;101243.71;110023;1253;22365;-37
2023/09/29 06:37:53;;;;;;;;;19.33;18.33;;;;;24.23;41.50;101242.05;110001;1253;20763;-37
2023/09/29 06:40:22;;;;;;;;;23.00;19.00;;;;;24.26;41.16;101246.56;110025;1253;20074;-37
2023/09/29 06:42:50;;;;;;;;;18.50;18.50;;;;;24.27;41.35;101249.85;110034;1253;20163;-37
2023/09/29 06:45:17;;;;;;;;;20.00;19.00;;;;;24.30;41.33;101248.80;110007;1253;20755;-38
2023/09/29 06:47:45;;;;;;;;;22.00;20.00;;;;;24.31;40.96;101250.27;110007;1258;20040;-37
2023/09/29 06:50:12;;;;;;;;;22.50;21.50;;;;;24.33;40.84;101249.77;109992;1267;18756;-37
2023/09/29 06:52:39;;;;;;;;;22.00;21.50;;;;;24.35;40.87;101250.47;109989;1253;20693;-38
2023/09/29 06:55:07;;;;;;;;;18.00;15.50;;;;;24.36;40.86;101250.73;110000;1267;18592;-37
2023/09/29 06:57:35;;;;;;;;;23.00;21.00;;;;;24.38;40.93;101254.55;110016;1253;22478;-38
2023/09/29 07:00:03;;;;;;;;;19.50;19.00;;;;;24.39;40.94;101249.67;109978;1259;22621;-37
2023/09/29 07:02:31;;;;;;;;;22.00;21.50;;;;;24.41;40.74;101250.27;110009;1267;18636;-38
2023/09/29 07:04:58;;;;;;;;;19.00;18.00;;;;;24.43;40.89;101245.98;110007;1259;20018;-37
2023/09/29 07:07:25;;;;;;;;;18.50;18.00;;;;;24.43;40.63;101249.54;109996;1260;20684;-37
2023/09/29 07:09:53;;;;;;;;;17.00;15.50;;;;;24.46;40.75;101242.19;109990;1253;22332;-37
2023/09/29 07:12:21;;;;;;;;;18.00;16.00;;;;;24.47;40.75;101240.80;110000;1251;18676;-39
2023/09/29 07:14:48;;;;;;;;;19.00;19.00;;;;;24.50;40.68;101234.21;110004;1251;20666;-37
2023/09/29 07:17:16;;;;;;;;;19.00;18.00;;;;;24.54;40.47;101230.03;109968;1267;18625;-38
2023/09/29 07:19:44;;;;;;;;;22.33;19.67;;;;;24.58;40.52;101229.95;109974;1253;22492;-38
2023/09/29 07:22:11;;;;;;;;;22.00;21.00;;;;;24.61;40.57;101228.23;109930;1251;20724;-38
2023/09/29 07:24:38;;;;;;;;;22.50;20.00;;;;;24.63;40.64;101229.31;109991;1267;18854;-38
2023/09/29 07:27:05;;;;;;;;;16.00;16.00;;;;;24.64;40.52;101234.62;109986;1253;18846;-38
2023/09/29 07:29:33;;;;;;;;;20.00;19.00;;;;;24.66;40.57;101239.87;109993;1252;22131;-38
2023/09/29 07:32:00;;;;;;;;;19.00;18.00;;;;;24.68;40.75;101235.36;110021;1254;20051;-38
2023/09/29 07:34:29;;;;;;;;;20.67;19.67;;;;;24.72;40.75;101238.95;109993;1251;20376;-38
2023/09/29 07:36:57;;;;;;;;;19.00;18.50;;;;;24.73;40.49;101234.72;109984;1267;19337;-37
2023/09/29 07:39:24;;;;;;;;;19.50;18.50;;;;;24.74;40.61;101237.89;110021;1251;21559;-38
2023/09/29 07:41:52;;;;;;;;;17.33;17.33;;;;;24.75;40.79;101234.48;109977;1253;20157;-37
2023/09/29 07:44:20;;;;;;;;;17.00;17.00;;;;;24.77;40.60;101233.86;109996;1253;20705;-38
2023/09/29 07:46:52;;;;;;;;;18.00;15.00;;;;;24.78;40.87;101239.51;109982;1267;18629;-37
2023/09/29 07:49:20;;;;;;;;;19.00;18.50;;;;;24.79;40.75;101238.35;109992;1267;18834;-38
2023/09/29 07:51:49;;;;;;;;;18.00;16.00;;;;;24.77;41.07;101240.61;109958;1253;20814;-37
2023/09/29 07:54:17;;;;;;;;;19.00;19.00;;;;;24.79;41.28;101239.77;109978;1259;22175;-37
2023/09/29 07:56:47;;;;;;;;;23.00;20.00;;;;;24.77;41.27;101243.06;109974;1251;21671;-36
2023/09/29 07:59:14;;;;;;;;;20.50;20.00;;;;;24.78;41.42;101240.93;109997;1259;20733;-36
2023/09/29 08:01:43;;;;;;;;;23.00;23.00;;;;;24.77;41.64;101237.32;110019;1253;23935;-37
2023/09/29 08:04:10;;;;;;;;;20.00;18.33;;;;;24.81;41.61;101235.65;109925;1259;20060;-38
2023/09/29 08:06:37;;;;;;;;;19.33;18.33;;;;;24.81;41.49;101231.42;109863;1267;19225;-35
2023/09/29 08:09:06;;;;;;;;;24.00;21.00;;;;;24.75;41.75;101225.94;109901;1253;19996;-36
2023/09/29 08:11:33;;;;;;;;;22.00;22.00;;;;;24.73;41.74;101221.13;109857;1251;18766;-37
2023/09/29 08:14:00;;;;;;;;;19.50;19.00;;;;;24.73;41.89;101222.89;109994;1251;22142;-37
2023/09/29 08:16:28;;;;;;;;;23.00;22.67;;;;;24.68;42.05;101221.98;110000;1253;20019;-36
2023/09/29 08:18:55;;;;;;;;;21.00;20.00;;;;;24.71;41.95;101225.59;109995;1253;20183;-38
2023/09/29 08:21:22;;;;;;;;;23.00;20.00;;;;;24.64;41.85;101226.24;110004;1267;22126;-38
2023/09/29 08:23:50;;;;;;;;;24.00;20.00;;;;;24.64;41.93;101226.67;110034;1251;20108;-37
2023/09/29 08:26:17;;;;;;;;;25.50;23.50;;;;;24.65;41.57;101221.57;109920;1251;20177;-36
2023/09/29 08:28:44;;;;;;;;;23.50;23.50;;;;;24.65;41.74;101218.12;110027;1251;20755;-35
2023/09/29 08:31:12;;;;;;;;;25.00;24.00;;;;;24.66;42.09;101219.05;110008;1267;19939;-36
2023/09/29 08:33:39;;;;;;;;;24.00;21.00;;;;;24.63;42.11;101224.21;110024;1253;19994;-36
2023/09/29 08:36:06;;;;;;;;;24.00;23.00;;;;;24.70;42.14;101225.48;110018;1251;20717;-37
2023/09/29 08:38:34;;;;;;;;;23.67;23.67;;;;;24.77;42.11;101224.88;110011;1253;20102;-37
2023/09/29 08:41:01;;;;;;;;;25.00;24.00;;;;;24.79;41.72;101223.88;109985;1253;23876;-37
2023/09/29 08:43:28;;;;;;;;;23.50;22.50;;;;;24.69;41.84;101229.27;109989;1267;20679;-36
2023/09/29 08:45:56;;;;;;;;;26.50;24.00;;;;;24.68;41.72;101229.71;109977;1267;18590;-39
2023/09/29 08:48:23;;;;;;;;;23.33;21.33;;;;;24.81;41.86;101225.89;109991;1254;20190;-36
2023/09/29 08:50:55;;;;;;;;;23.00;22.00;;;;;24.92;41.66;101226.63;110045;1251;21147;-37
2023/09/29 08:53:23;;;;;;;;;21.00;21.00;;;;;25.00;41.55;101228.56;110023;1259;19987;-37
2023/09/29 08:55:50;;;;;;;;;28.00;24.00;;;;;25.02;42.39;101226.19;110050;1253;22603;-37
2023/09/29 08:58:17;;;;;;;;;25.00;24.50;;;;;25.02;42.09;101227.88;110010;1267;19280;-38
2023/09/29 09:00:44;;;;;;;;;28.67;24.33;;;;;25.07;41.45;101233.72;110020;1255;20059;-38
2023/09/29 09:03:12;;;;;;;;;24.50;23.50;;;;;25.17;41.46;101225.73;110001;1253;20280;-38
2023/09/29 09:05:39;;;;;;;;;24.67;21.33;;;;;25.11;41.84;101231.65;110011;1253;20806;-38
2023/09/29 09:08:06;;;;;;;;;23.00;20.00;;;;;25.04;41.96;101229.40;110010;1267;18561;-38
2023/09/29 09:10:34;;;;;;;;;25.00;23.00;;;;;25.02;42.14;101227.45;109956;1251;20194;-38
2023/09/29 09:13:01;;;;;;;;;20.00;19.00;;;;;24.99;42.08;101226.98;110017;1267;19413;-38
2023/09/29 09:15:28;;;;;;;;;19.00;19.00;;;;;24.99;42.11;101222.88;110002;1251;18573;-38
2023/09/29 09:17:56;;;;;;;;;19.00;19.00;;;;;24.99;42.03;101222.45;110001;1251;23466;-37
2023/09/29 09:20:23;;;;;;;;;16.00;15.00;;;;;24.96;42.02;101221.34;109987;1253;20617;-38
2023/09/29 09:22:51;;;;;;;;;22.00;19.50;;;;;24.96;41.78;101218.98;109971;1253;20937;-38
2023/09/29 09:25:18;;;;;;;;;19.00;18.00;;;;;24.99;42.10;101218.42;109923;1267;18762;-37
2023/09/29 09:27:49;;;;;;;;;16.00;15.50;;;;;25.01;41.80;101215.34;109910;1267;22381;-37
2023/09/29 09:30:16;;;;;;;;;18.00;16.00;;;;;25.01;42.05;101217.76;110004;1254;20052;-38
2023/09/29 09:32:43;;;;;;;;;18.00;18.00;;;;;24.93;41.92;101210.83;109909;1253;22308;-37
2023/09/29 09:35:11;;;;;;;;;19.00;18.00;;;;;24.93;42.13;101207.17;109998;1259;20686;-37
2023/09/29 09:37:38;;;;;;;;;16.00;16.00;;;;;24.96;42.11;101206.00;110034;1267;18554;-37
2023/09/29 09:40:05;;;;;;;;;19.50;19.50;;;;;24.91;42.21;101206.62;109985;1259;20208;-37
2023/09/29 09:42:33;;;;;;;;;18.00;16.00;;;;;24.95;42.16;101200.85;110002;1259;20656;-38
2023/09/29 09:45:00;;;;;;;;;18.00;16.00;;;;;24.99;42.21;101197.48;109992;1251;20068;-38
2023/09/29 09:47:27;;;;;;;;;19.00;19.00;;;;;25.00;42.12;101199.02;109988;1267;22282;-38
2023/09/29 09:49:55;;;;;;;;;15.50;15.50;;;;;24.92;42.31;101197.30;110001;1251;18970;-37
2023/09/29 09:52:23;;;;;;;;;19.00;16.00;;;;;24.94;42.26;101193.45;109991;1267;18603;-38
2023/09/29 09:54:51;;;;;;;;;14.50;14.50;;;;;24.92;42.77;101190.72;110016;1267;18866;-38
2023/09/29 09:57:20;;;;;;;;;19.00;18.00;;;;;24.94;42.86;101188.13;109954;1251;20812;-38
2023/09/29 09:59:47;;;;;;;;;19.00;18.00;;;;;24.97;43.07;101186.59;110007;1267;18918;-38
2023/09/29 10:02:15;;;;;;;;;18.50;18.00;;;;;24.97;43.13;101184.34;109876;1267;176831;-38
2023/09/29 10:04:43;;;;;;;;;18.00;16.00;;;;;24.98;43.33;101183.25;110000;1253;20788;-36
2023/09/29 10:07:10;;;;;;;;;18.00;18.00;;;;;25.04;43.09;101177.33;109983;1253;20000;-37
2023/09/29 10:09:37;;;;;;;;;19.00;18.00;;;;;25.05;42.91;101174.52;110009;1253;22320;-37
2023/09/29 10:12:05;;;;;;;;;19.50;18.00;;;;;25.05;42.82;101174.30;110030;1267;19372;-38
2023/09/29 10:14:32;;;;;;;;;19.00;19.00;;;;;25.01;42.80;101168.26;110000;1267;18603;-37
2023/09/29 10:16:59;;;;;;;;;16.00;15.00;;;;;25.02;42.64;101173.63;109996;1259;20749;-37
2023/09/29 10:19:27;;;;;;;;;18.00;17.33;;;;;24.98;42.83;101173.66;110021;1253;21752;-36
2023/09/29 10:21:55;;;;;;;;;19.00;18.00;;;;;25.01;42.72;101166.98;110009;1253;20058;-36
2023/09/29 10:24:23;;;;;;;;;15.50;15.00;;;;;24.99;42.70;101163.11;110030;1253;20105;-35
2023/09/29 10:26:51;;;;;;;;;19.00;18.00;;;;;24.97;42.86;101166.59;109946;1252;20837;-36
2023/09/29 10:29:18;;;;;;;;;18.33;16.00;;;;;25.00;42.65;101161.91;109961;1259;20136;-35
2023/09/29 10:31:46;;;;;;;;;21.00;19.00;;;;;25.02;42.77;101162.73;110007;1259;18761;-36
2023/09/29 10:34:15;;;;;;;;;19.00;18.00;;;;;25.00;42.81;101156.48;109996;1267;19637;-35
2023/09/29 10:36:43;;;;;;;;;17.33;17.33;;;;;25.01;42.75;101154.05;110013;1251;20036;-36
2023/09/29 10:39:11;;;;;;;;;18.00;18.00;;;;;25.03;42.88;101150.15;110006;1253;20104;-36
2023/09/29 10:41:38;;;;;;;;;18.00;18.00;;;;;24.99;42.91;101153.95;110038;1251;20961;-36
2023/09/29 10:44:09;;;;;;;;;23.00;20.50;;;;;24.95;42.73;101144.99;110008;1251;21073;-36
2023/09/29 10:46:36;;;;;;;;;25.00;23.50;;;;;25.12;42.13;101148.30;110026;1251;20173;-36
2023/09/29 10:49:04;;;;;;;;;25.00;24.00;;;;;25.16;41.71;101143.44;109997;1253;20739;-36
2023/09/29 10:51:31;;;;;;;;;22.00;22.00;;;;;25.19;41.34;101145.59;109932;1251;20042;-37
2023/09/29 10:53:59;;;;;;;;;24.00;22.50;;;;;25.27;41.83;101141.56;109995;1251;22651;-37
2023/09/29 10:56:26;;;;;;;;;19.00;19.00;;;;;25.18;41.81;101137.92;110006;1253;20813;-36
2023/09/29 10:58:53;;;;;;;;;21.00;20.00;;;;;25.20;41.41;101134.02;110012;1259;18576;-37
2023/09/29 11:01:21;;;;;;;;;20.00;19.00;;;;;25.26;41.06;101131.20;109992;1251;20116;-36
2023/09/29 11:03:50;;;;;;;;;21.00;20.00;;;;;25.32;41.27;101127.63;109968;1251;19326;-36